sensor_id;sensor_type;location;lat;lon;timestamp;pressure;altitude;pressure_sealevel;temperature;humidity
70943;BME280;59154;51.970;5.650;2023-05-01T16:10:04;101500;;;22.16824;62.6
70943;BME280;59154;51.970;5.650;2023-05-01T16:20:08;101500;;;22.42764;64.8
70943;BME280;59154;51.970;5.650;2023-05-01T16:25:03;101500;;;22.68196;68.9
70943;BME280;59154;51.970;5.650;2023-05-01T16:30:04;101500;;;22.78877;67.2
70943;BME280;59154;51.970;5.650;2023-05-01T16:35:02;101500;;;22.88032;65.7
70943;BME280;59154;51.970;5.650;2023-05-01T16:40:06;101500;;;22.95662;64.9
70943;BME280;59154;51.970;5.650;2023-05-01T16:45:04;101500;;;22.99731;64.3
70943;BME280;59154;51.970;5.650;2023-05-01T16:50:07;101500;;;22.95662;62.9
70943;BME280;59154;51.970;5.650;2023-05-01T16:55:03;101500;;;22.97188;62.9
70943;BME280;59154;51.970;5.650;2023-05-01T17:00:04;101500;;;23.00239;62.6
70943;BME280;59154;51.970;5.650;2023-05-01T17:05:03;101500;;;22.94644;62.1
70943;BME280;59154;51.970;5.650;2023-05-01T17:10:08;101500;;;22.89049;61.7
70943;BME280;59154;51.970;5.650;2023-05-01T17:15:02;101500;;;22.82946;61.6
70943;BME280;59154;51.970;5.650;2023-05-01T17:20:03;101500;;;22.85489;61.8
70943;BME280;59154;51.970;5.650;2023-05-01T17:25:04;101500;;;22.84472;62.1
70943;BME280;59154;51.970;5.650;2023-05-01T17:30:04;101500;;;22.84472;63.1
70943;BME280;59154;51.970;5.650;2023-05-01T17:35:03;101600;;;22.83963;63.3
70943;BME280;59154;51.970;5.650;2023-05-01T17:40:04;101600;;;22.8498;63.9
70943;BME280;59154;51.970;5.650;2023-05-01T17:45:04;101600;;;22.80403;63.4
70943;BME280;59154;51.970;5.650;2023-05-01T17:50:03;101600;;;22.79385;63.3
70943;BME280;59154;51.970;5.650;2023-05-01T17:55:02;101600;;;22.78368;63.1
70943;BME280;59154;51.970;5.650;2023-05-01T18:00:05;101600;;;22.77351;63.1
70943;BME280;59154;51.970;5.650;2023-05-01T18:05:03;101600;;;22.76334;62.7
70943;BME280;59154;51.970;5.650;2023-05-01T18:10:04;101600;;;22.75316;62.5
70943;BME280;59154;51.970;5.650;2023-05-01T18:15:03;101600;;;22.73791;62.5
70943;BME280;59154;51.970;5.650;2023-05-01T18:20:04;101600;;;22.72773;62.5
70943;BME280;59154;51.970;5.650;2023-05-01T18:25:03;101600;;;22.67687;61.8
70943;BME280;59154;51.970;5.650;2023-05-01T18:30:03;101600;;;22.65144;61.5
70943;BME280;59154;51.970;5.650;2023-05-01T18:35:03;101600;;;22.64635;61.2
70943;BME280;59154;51.970;5.650;2023-05-01T18:40:04;101600;;;22.64635;61.4
70943;BME280;59154;51.970;5.650;2023-05-01T18:45:03;101600;;;22.65144;61.6
70943;BME280;59154;51.970;5.650;2023-05-01T18:50:03;101600;;;22.64127;61.5
70943;BME280;59154;51.970;5.650;2023-05-01T18:55:04;101700;;;22.64127;61.6
70943;BME280;59154;51.970;5.650;2023-05-01T19:00:05;101700;;;22.62092;61.6
70943;BME280;59154;51.970;5.650;2023-05-01T19:05:03;101700;;;22.61583;61.4
70943;BME280;59154;51.970;5.650;2023-05-01T19:10:03;101700;;;22.61583;61.4
70943;BME280;59154;51.970;5.650;2023-05-01T19:15:03;101700;;;22.62092;61.5
70943;BME280;59154;51.970;5.650;2023-05-01T19:20:03;101700;;;22.64635;61.6
70943;BME280;59154;51.970;5.650;2023-05-01T19:25:04;101700;;;22.6667;61.8
70943;BME280;59154;51.970;5.650;2023-05-01T19:30:03;101700;;;22.67687;61.7
70943;BME280;59154;51.970;5.650;2023-05-01T19:35:04;101700;;;22.68196;62.2
70943;BME280;59154;51.970;5.650;2023-05-01T19:40:04;101700;;;22.75825;63.3
70943;BME280;59154;51.970;5.650;2023-05-01T19:45:03;101700;;;22.84472;63.8
70943;BME280;59154;51.970;5.650;2023-05-01T19:50:03;101700;;;22.86506;63.9
70943;BME280;59154;51.970;5.650;2023-05-01T19:55:04;101700;;;22.86506;63.8
70943;BME280;59154;51.970;5.650;2023-05-01T20:00:09;101700;;;22.87015;63.7
70943;BME280;59154;51.970;5.650;2023-05-01T20:05:03;101700;;;22.84472;63.6
70943;BME280;59154;51.970;5.650;2023-05-01T20:10:03;101700;;;22.83455;63.6
70943;BME280;59154;51.970;5.650;2023-05-01T20:15:03;101700;;;22.83455;63.6
70943;BME280;59154;51.970;5.650;2023-05-01T20:20:03;101700;;;22.83455;63.4
70943;BME280;59154;51.970;5.650;2023-05-01T20:25:02;101700;;;22.82437;63.3
70943;BME280;59154;51.970;5.650;2023-05-01T20:30:09;101800;;;22.78877;63.1
70943;BME280;59154;51.970;5.650;2023-05-01T20:35:03;101800;;;22.74299;63.0
70943;BME280;59154;51.970;5.650;2023-05-01T20:40:04;101800;;;22.75316;63.1
70943;BME280;59154;51.970;5.650;2023-05-01T20:45:03;101800;;;22.73791;62.8
70943;BME280;59154;51.970;5.650;2023-05-01T20:50:03;101800;;;22.73282;62.7
70943;BME280;59154;51.970;5.650;2023-05-01T20:55:03;101800;;;22.72773;62.7
70943;BME280;59154;51.970;5.650;2023-05-01T21:00:04;101800;;;22.71756;62.7
70943;BME280;59154;51.970;5.650;2023-05-01T21:05:04;101800;;;22.69213;62.5
70943;BME280;59154;51.970;5.650;2023-05-01T21:10:04;101800;;;22.69213;62.5
70943;BME280;59154;51.970;5.650;2023-05-01T21:15:03;101800;;;22.73791;62.3
70943;BME280;59154;51.970;5.650;2023-05-01T21:20:04;101800;;;22.71756;62.3
70943;BME280;59154;51.970;5.650;2023-05-01T21:25:03;101800;;;22.6667;62.2
70943;BME280;59154;51.970;5.650;2023-05-01T21:30:04;101800;;;22.62601;62.2
70943;BME280;59154;51.970;5.650;2023-05-01T21:35:05;101800;;;22.61583;62.1
70943;BME280;59154;51.970;5.650;2023-05-01T21:40:05;101800;;;22.5904;62.1
70943;BME280;59154;51.970;5.650;2023-05-01T21:45:05;101800;;;22.55989;62.0
70943;BME280;59154;51.970;5.650;2023-05-01T21:50:04;101800;;;22.53954;61.9
70943;BME280;59154;51.970;5.650;2023-05-01T21:55:06;101800;;;22.5192;61.8
70943;BME280;59154;51.970;5.650;2023-05-01T22:00:04;101800;;;22.48868;61.9
70943;BME280;59154;51.970;5.650;2023-05-01T22:05:04;101800;;;22.44799;61.7
70943;BME280;59154;51.970;5.650;2023-05-01T22:10:03;101800;;;22.42764;61.7
70943;BME280;59154;51.970;5.650;2023-05-01T22:15:03;101800;;;22.41747;61.6
70943;BME280;59154;51.970;5.650;2023-05-01T22:20:05;101800;;;22.40221;61.6
70943;BME280;59154;51.970;5.650;2023-05-01T22:25:03;101800;;;22.36661;61.5
70943;BME280;59154;51.970;5.650;2023-05-01T22:30:04;101800;;;22.36661;61.5
70943;BME280;59154;51.970;5.650;2023-05-01T22:35:02;101800;;;22.35135;61.4
70943;BME280;59154;51.970;5.650;2023-05-01T22:40:05;101800;;;22.33609;61.4
70943;BME280;59154;51.970;5.650;2023-05-01T22:45:03;101900;;;22.31066;61.3
70943;BME280;59154;51.970;5.650;2023-05-01T22:50:08;101900;;;22.29031;61.3
70943;BME280;59154;51.970;5.650;2023-05-01T22:55:04;101900;;;22.28523;61.2
70943;BME280;59154;51.970;5.650;2023-05-01T23:00:04;101900;;;22.28014;61.1
70943;BME280;59154;51.970;5.650;2023-05-01T23:05:06;101900;;;22.24962;61.1
70943;BME280;59154;51.970;5.650;2023-05-01T23:10:04;101900;;;22.23436;61.1
70943;BME280;59154;51.970;5.650;2023-05-01T23:15:03;101900;;;22.22928;61.0
70943;BME280;59154;51.970;5.650;2023-05-01T23:20:05;101900;;;22.22419;61.0
70943;BME280;59154;51.970;5.650;2023-05-01T23:25:04;101900;;;22.21402;60.9
70943;BME280;59154;51.970;5.650;2023-05-01T23:30:04;101900;;;22.20385;60.9
70943;BME280;59154;51.970;5.650;2023-05-01T23:35:12;101900;;;22.19367;60.9
70943;BME280;59154;51.970;5.650;2023-05-01T23:40:03;101900;;;22.18859;60.9
70943;BME280;59154;51.970;5.650;2023-05-01T23:45:03;101900;;;22.19367;60.6
70943;BME280;59154;51.970;5.650;2023-05-01T23:50:04;101900;;;22.18859;60.5
70943;BME280;59154;51.970;5.650;2023-05-01T23:55:03;101900;;;22.16316;60.6
